Time;durP1;ratioP1;P1;durP2;ratioP2;P2;SDS_P1;SDS_P2;PMS_P1;PMS_P2;Temp;Humidity;BMP_temperature;BMP_pressure;BME280_temperature;BME280_humidity;BME280_pressure;Samples;Min_cycle;Max_cycle;Signal;HPM_P1;HPM_P2
2022/04/25 00:02:31;;;;;;;4.18;2.25;;;;;;;9.92;40.69;100005.63;5044936;28;20072;-57
2022/04/25 00:05:02;;;;;;;2.13;1.38;;;;;;;10.17;39.37;100013.03;5045582;28;20053;-55
2022/04/25 00:07:32;;;;;;;3.38;1.45;;;;;;;10.06;36.33;100013.25;5045594;28;20116;-56
2022/04/25 00:10:03;;;;;;;1.88;1.23;;;;;;;10.00;36.17;100010.72;5045118;28;20054;-55
2022/04/25 00:12:33;;;;;;;2.35;1.38;;;;;;;10.08;36.02;100021.03;5046050;28;20080;-57
2022/04/25 00:15:04;;;;;;;2.50;1.30;;;;;;;10.06;33.86;100007.13;5045500;28;20155;-55
2022/04/25 00:17:37;;;;;;;2.60;1.27;;;;;;;9.93;34.75;100028.25;5045299;28;20355;-55
2022/04/25 00:20:10;;;;;;;2.80;1.63;;;;;;;10.10;34.81;100016.63;5044678;28;20124;-56
2022/04/25 00:22:40;;;;;;;1.40;1.30;;;;;;;10.21;33.41;100025.16;5044612;28;20088;-56
2022/04/25 00:25:11;;;;;;;1.67;1.40;;;;;;;10.04;34.17;100028.06;5044597;28;20049;-55
2022/04/25 00:27:42;;;;;;;1.20;1.10;;;;;;;9.70;33.57;100031.22;5045160;28;20051;-56
2022/04/25 00:30:13;;;;;;;3.08;1.55;;;;;;;9.82;34.72;100035.41;5044737;28;20056;-57
2022/04/25 00:32:46;;;;;;;1.95;1.63;;;;;;;9.92;34.52;100047.41;5044357;28;20279;-57
2022/04/25 00:35:16;;;;;;;3.15;1.55;;;;;;;10.07;34.61;100029.75;5044483;28;20336;-56
2022/04/25 00:37:47;;;;;;;2.50;1.30;;;;;;;10.12;34.10;100027.91;5044707;28;20056;-57
2022/04/25 00:40:19;;;;;;;2.58;1.48;;;;;;;10.14;34.17;100026.16;5044366;28;20064;-57
2022/04/25 00:42:50;;;;;;;2.08;1.20;;;;;;;9.86;32.65;100031.84;5044547;28;20089;-56
2022/04/25 00:45:21;;;;;;;3.75;1.40;;;;;;;10.08;35.20;100028.84;5044600;28;20080;-56
2022/04/25 00:47:53;;;;;;;3.00;1.23;;;;;;;10.17;34.24;100020.88;5043967;28;20469;-56
2022/04/25 00:50:24;;;;;;;2.83;1.40;;;;;;;10.19;35.46;100034.75;5044851;28;20050;-56
2022/04/25 00:52:54;;;;;;;1.65;1.30;;;;;;;10.02;33.45;100026.38;5044374;28;20045;-57
2022/04/25 00:55:26;;;;;;;2.60;1.30;;;;;;;10.30;35.00;100027.59;5044300;28;20060;-56
2022/04/25 00:57:57;;;;;;;6.07;1.55;;;;;;;10.48;34.07;100009.84;5044406;28;20084;-56
2022/04/25 01:00:27;;;;;;;2.72;1.70;;;;;;;10.56;34.35;100021.88;5045365;28;20072;-56
2022/04/25 01:03:00;;;;;;;1.65;1.40;;;;;;;10.39;34.41;99997.00;5044966;28;20052;-55
2022/04/25 01:05:31;;;;;;;7.22;1.80;;;;;;;10.86;31.66;100032.59;5044680;28;20152;-57
2022/04/25 01:08:02;;;;;;;2.83;1.70;;;;;;;10.73;31.96;100024.16;5044058;28;20057;-57
2022/04/25 01:10:33;;;;;;;3.55;1.50;;;;;;;10.91;34.86;100019.44;5044274;28;20358;-57
2022/04/25 01:13:03;;;;;;;4.07;1.52;;;;;;;11.05;32.15;100021.72;5044444;28;20112;-56
2022/04/25 01:15:34;;;;;;;2.75;1.73;;;;;;;11.11;33.22;100017.22;5044084;28;20080;-57
2022/04/25 01:18:06;;;;;;;2.28;1.27;;;;;;;10.99;31.68;100022.72;5044231;28;20395;-57
2022/04/25 01:20:38;;;;;;;1.60;1.40;;;;;;;10.93;32.24;99996.72;5044098;28;20095;-58
2022/04/25 01:28:51;;;;;;;3.13;1.40;;;;;;;10.70;30.69;100000.69;5043746;28;20418;-57
2022/04/25 01:31:22;;;;;;;5.75;2.10;;;;;;;10.62;30.37;99955.56;5043723;28;20061;-56
2022/04/25 01:33:53;;;;;;;2.05;1.27;;;;;;;10.54;30.43;99983.63;5042620;28;20064;-57
2022/04/25 01:36:27;;;;;;;1.30;1.20;;;;;;;10.49;28.73;99995.91;5043663;28;20059;-57
2022/04/25 01:38:59;;;;;;;3.55;1.45;;;;;;;10.66;30.40;99998.16;5043582;28;20120;-57
2022/04/25 01:41:30;;;;;;;6.22;2.20;;;;;;;10.79;31.36;99987.41;5043518;28;20049;-56
2022/04/25 01:44:00;;;;;;;4.13;1.63;;;;;;;11.04;32.66;99999.97;5043627;28;20104;-57
2022/04/25 01:46:31;;;;;;;1.65;1.20;;;;;;;10.84;30.03;99999.53;5043229;28;20094;-56
2022/04/25 01:49:01;;;;;;;1.45;1.30;;;;;;;10.76;31.01;99995.34;5043557;28;20088;-56
2022/04/25 01:51:33;;;;;;;2.17;1.50;;;;;;;10.66;29.99;99999.03;5043696;28;20060;-56
2022/04/25 01:54:05;;;;;;;1.38;1.20;;;;;;;10.70;29.99;99990.22;5043135;28;20324;-55
2022/04/25 01:56:36;;;;;;;2.65;1.17;;;;;;;10.63;29.66;99978.19;5045105;28;20045;-57
2022/04/25 01:59:07;;;;;;;2.30;1.48;;;;;;;10.60;31.20;99967.81;5044779;28;20053;-55
2022/04/25 02:01:37;;;;;;;2.33;1.40;;;;;;;10.66;30.15;99967.69;5043397;28;20193;-55
2022/04/25 02:04:08;;;;;;;2.10;1.40;;;;;;;10.72;28.73;99972.75;5043707;28;20095;-57
2022/04/25 02:06:39;;;;;;;4.13;1.77;;;;;;;10.62;29.70;99971.25;5043519;28;20064;-57
2022/04/25 02:09:11;;;;;;;3.15;1.42;;;;;;;10.61;30.50;100003.50;5043233;28;20116;-57
2022/04/25 02:11:42;;;;;;;3.20;1.30;;;;;;;10.69;29.81;99988.53;5043057;28;20440;-56
2022/04/25 02:14:13;;;;;;;6.15;1.60;;;;;;;10.77;29.35;99991.81;5043317;28;20049;-55
2022/04/25 02:16:44;;;;;;;1.50;1.40;;;;;;;10.72;29.26;100014.56;5043170;28;20099;-57
2022/04/25 02:19:15;;;;;;;1.40;1.30;;;;;;;10.83;29.48;100021.31;5026924;28;20095;-55
2022/04/25 02:21:46;;;;;;;2.10;1.42;;;;;;;10.96;30.23;100018.44;5025096;28;20069;-56
2022/04/25 02:24:19;;;;;;;1.77;1.50;;;;;;;11.21;30.10;100026.59;5023835;28;20057;-55
2022/04/25 02:26:50;;;;;;;3.25;1.40;;;;;;;11.27;29.47;100019.50;5022991;28;20068;-57
2022/04/25 02:29:22;;;;;;;2.13;1.70;;;;;;;11.49;30.45;100027.69;5023130;28;20329;-57
2022/04/25 02:31:53;;;;;;;2.28;1.73;;;;;;;11.56;29.25;100014.44;5023018;28;20256;-56
2022/04/25 02:34:24;;;;;;;3.67;1.42;;;;;;;11.30;28.10;100014.19;5022944;28;20053;-57
2022/04/25 02:36:55;;;;;;;2.40;1.95;;;;;;;11.27;28.41;100011.66;5023065;28;20225;-57
2022/04/25 02:39:28;;;;;;;4.50;1.70;;;;;;;11.31;29.48;100018.53;5022952;28;20042;-55
2022/04/25 02:41:58;;;;;;;1.88;1.20;;;;;;;11.13;28.62;100031.13;5022834;28;20251;-56
2022/04/25 02:44:29;;;;;;;2.15;1.60;;;;;;;11.08;29.22;100027.72;5025278;28;20136;-56
2022/04/25 02:47:00;;;;;;;1.90;1.13;;;;;;;10.88;28.62;100040.38;5026634;28;20081;-57
2022/04/25 02:49:31;;;;;;;1.60;1.40;;;;;;;10.94;28.71;100042.88;5027142;28;20050;-56
2022/04/25 02:52:02;;;;;;;1.20;1.10;;;;;;;11.20;30.66;100037.94;5026744;28;20050;-56
2022/04/25 02:54:34;;;;;;;3.90;1.45;;;;;;;11.48;29.26;100032.06;5026470;28;20092;-55
2022/04/25 02:57:05;;;;;;;3.00;1.40;;;;;;;11.34;28.72;100034.16;5028002;28;20057;-57
2022/04/25 02:59:36;;;;;;;1.40;1.30;;;;;;;11.45;30.05;100026.91;5027059;28;20239;-57
2022/04/25 03:02:07;;;;;;;4.32;1.58;;;;;;;11.47;31.54;100009.41;5026825;28;20054;-56
2022/04/25 03:04:38;;;;;;;4.57;1.95;;;;;;;11.65;29.93;100045.59;5027021;28;20103;-57
2022/04/25 03:07:08;;;;;;;1.92;1.63;;;;;;;11.62;28.81;100045.66;5026806;28;20586;-57
2022/04/25 03:09:41;;;;;;;8.65;1.73;;;;;;;11.63;29.56;100062.22;5026404;28;20063;-58
2022/04/25 03:12:12;;;;;;;3.17;1.60;;;;;;;11.74;29.73;100059.38;5026379;28;20503;-57
2022/04/25 03:14:42;;;;;;;5.55;1.90;;;;;;;11.65;30.12;100065.66;5026307;28;20053;-56
2022/04/25 03:17:13;;;;;;;9.68;1.90;;;;;;;11.79;30.78;100067.97;5026265;28;20167;-57
2022/04/25 03:19:44;;;;;;;6.38;1.60;;;;;;;12.09;28.35;100072.47;5026547;28;20060;-57
2022/04/25 03:22:14;;;;;;;23.33;2.70;;;;;;;12.09;27.46;100072.47;5026228;28;20046;-57
2022/04/25 03:24:47;;;;;;;4.85;1.70;;;;;;;12.08;29.47;100068.13;5026051;28;20077;-56
2022/04/25 03:27:18;;;;;;;2.35;1.55;;;;;;;12.15;28.05;100065.34;5025367;28;20044;-56
2022/04/25 03:29:48;;;;;;;2.00;1.38;;;;;;;11.76;24.91;100078.53;5026432;28;20072;-56
2022/04/25 03:32:19;;;;;;;7.25;2.55;;;;;;;11.52;27.50;100086.03;5025781;28;20058;-55
2022/04/25 03:34:49;;;;;;;8.93;2.65;;;;;;;11.42;29.11;100095.00;5026095;28;20083;-55
2022/04/25 03:37:20;;;;;;;9.18;3.08;;;;;;;11.59;28.29;100097.25;5025820;28;20080;-56
2022/04/25 03:39:52;;;;;;;2.72;1.70;;;;;;;11.69;28.60;100103.13;5025938;28;20128;-56
2022/04/25 03:42:24;;;;;;;3.38;1.90;;;;;;;11.75;29.26;100102.97;5025708;28;20064;-55
2022/04/25 03:44:55;;;;;;;11.77;3.95;;;;;;;11.98;29.69;100111.16;5025870;28;20136;-54
2022/04/25 03:47:26;;;;;;;7.03;3.58;;;;;;;12.18;30.00;100117.66;5025731;28;20083;-55
2022/04/25 03:49:57;;;;;;;18.55;2.97;;;;;;;12.24;29.50;100125.38;5025408;28;20041;-56
2022/04/25 03:52:28;;;;;;;2.13;1.70;;;;;;;12.07;29.88;100084.72;5025883;28;20168;-56
2022/04/25 03:57:48;;;;;;;3.20;1.70;;;;;;;12.26;27.55;100129.66;5025732;28;20049;-55
2022/04/25 04:00:19;;;;;;;1.70;1.48;;;;;;;12.21;28.34;100133.31;5025268;28;20053;-56
2022/04/25 04:02:49;;;;;;;8.32;1.90;;;;;;;12.15;27.38;100149.16;5025603;28;20112;-56
2022/04/25 04:05:21;;;;;;;5.03;2.25;;;;;;;12.01;28.86;100139.91;5025494;28;20065;-56
2022/04/25 04:07:53;;;;;;;8.90;2.10;;;;;;;11.95;28.15;100153.13;5025685;28;20132;-56
2022/04/25 04:10:26;;;;;;;4.13;1.77;;;;;;;11.82;27.77;100146.44;5026159;28;20105;-55
2022/04/25 04:12:58;;;;;;;2.03;1.67;;;;;;;11.80;27.72;100153.44;5025068;28;20053;-55
2022/04/25 04:15:31;;;;;;;3.75;1.83;;;;;;;11.75;28.96;100155.31;5025367;28;20084;-53
2022/04/25 04:18:02;;;;;;;2.72;1.88;;;;;;;11.79;28.26;100156.97;5025015;28;20062;-55
2022/04/25 04:20:33;;;;;;;3.22;1.73;;;;;;;11.83;28.61;100148.13;5024955;28;20053;-55
2022/04/25 04:23:05;;;;;;;7.30;2.00;;;;;;;11.59;27.65;100160.91;5025095;28;20347;-55
2022/04/25 04:25:37;;;;;;;11.45;2.13;;;;;;;11.62;29.71;100163.44;5025270;28;20071;-56
2022/04/25 04:28:08;;;;;;;2.53;1.63;;;;;;;11.66;27.80;100131.09;5025426;28;20073;-55
2022/04/25 04:30:39;;;;;;;6.65;1.90;;;;;;;11.75;27.02;100139.59;5025120;28;20487;-56
2022/04/25 04:33:10;;;;;;;2.58;1.70;;;;;;;11.79;27.70;100154.34;5025074;28;20080;-55
2022/04/25 04:38:28;;;;;;;7.43;2.10;;;;;;;11.92;28.67;100158.44;5025242;28;20240;-56
2022/04/25 04:41:01;;;;;;;3.65;1.98;;;;;;;12.21;28.23;100169.97;5025583;28;20092;-57
2022/04/25 04:43:31;;;;;;;8.93;1.90;;;;;;;12.23;27.25;100168.16;5025500;28;20058;-55
2022/04/25 04:46:02;;;;;;;7.70;2.00;;;;;;;12.32;27.80;100173.19;5025695;28;20236;-56
2022/04/25 04:48:32;;;;;;;8.50;1.75;;;;;;;12.42;26.25;100169.44;5025392;28;20065;-56
2022/04/25 04:51:03;;;;;;;12.40;2.20;;;;;;;12.37;27.35;100181.78;5025014;28;20076;-56
2022/04/25 04:53:34;;;;;;;2.78;1.67;;;;;;;12.16;26.67;100183.19;5025705;28;20061;-57
2022/04/25 04:56:07;;;;;;;6.53;1.80;;;;;;;11.95;25.38;100174.06;5025311;28;20041;-56
2022/04/25 04:58:42;;;;;;;14.43;2.25;;;;;;;11.75;27.45;100179.72;5024567;28;20160;-56
2022/04/25 05:01:12;;;;;;;1.95;1.77;;;;;;;11.93;28.91;100181.13;5024593;28;20054;-54
2022/04/25 05:03:44;;;;;;;5.40;2.22;;;;;;;11.99;28.44;100180.09;5024455;28;20053;-57
2022/04/25 05:06:15;;;;;;;2.97;1.70;;;;;;;11.98;26.08;100184.50;5024235;28;20077;-55
2022/04/25 05:08:46;;;;;;;13.73;2.38;;;;;;;11.82;26.46;100188.31;5024226;28;20129;-56
2022/04/25 05:11:18;;;;;;;4.82;1.85;;;;;;;11.78;25.99;100176.19;5024175;28;20057;-56
2022/04/25 05:13:49;;;;;;;5.38;1.90;;;;;;;11.66;25.78;100162.50;5024532;28;20061;-56
2022/04/25 05:16:19;;;;;;;4.57;2.17;;;;;;;11.44;24.50;100156.00;5023988;28;20053;-55
2022/04/25 05:18:50;;;;;;;3.42;2.10;;;;;;;11.39;25.51;100147.41;5023919;28;20064;-55
2022/04/25 05:21:21;;;;;;;4.28;1.75;;;;;;;11.51;26.47;100152.38;5024639;28;20042;-55
2022/04/25 05:23:54;;;;;;;2.75;1.80;;;;;;;11.53;26.16;100150.59;5024200;28;20065;-56
2022/04/25 05:26:27;;;;;;;6.63;1.73;;;;;;;11.53;24.58;100134.88;5025112;28;20092;-54
2022/04/25 05:28:58;;;;;;;4.43;2.20;;;;;;;11.45;24.63;100131.56;5023983;28;20057;-55
2022/04/25 05:31:29;;;;;;;3.35;2.00;;;;;;;11.48;25.78;100135.84;5024068;28;20054;-55
2022/04/25 05:34:01;;;;;;;2.60;1.90;;;;;;;11.70;28.41;100133.63;5024771;28;20125;-55
2022/04/25 05:36:32;;;;;;;3.83;1.92;;;;;;;11.74;25.95;100127.44;5023898;28;20103;-55
2022/04/25 05:39:03;;;;;;;4.57;2.15;;;;;;;11.84;26.14;100128.94;5025462;28;20116;-55
2022/04/25 05:41:37;;;;;;;5.40;3.85;;;;;;;11.89;25.66;100121.84;5023801;28;20054;-56
2022/04/25 05:44:10;;;;;;;3.03;2.30;;;;;;;11.92;26.44;100119.16;5024289;28;20060;-56
2022/04/25 05:46:41;;;;;;;8.65;2.08;;;;;;;12.03;26.66;100114.53;5023821;28;20041;-56
2022/04/25 05:52:08;;;;;;;3.75;2.10;;;;;;;12.46;27.23;100113.44;5023770;28;20103;-57
2022/04/25 05:54:38;;;;;;;2.47;1.70;;;;;;;12.59;26.79;100118.34;5023928;28;20061;-55
2022/04/25 05:57:11;;;;;;;2.58;1.80;;;;;;;12.74;26.93;100107.44;5023697;28;20068;-56
2022/04/25 05:59:41;;;;;;;2.42;1.70;;;;;;;12.86;26.74;100112.34;5023426;28;20340;-56
2022/04/25 06:02:12;;;;;;;3.15;1.77;;;;;;;13.09;27.61;100102.94;5023658;28;20133;-56
2022/04/25 06:04:43;;;;;;;2.80;1.98;;;;;;;13.20;27.09;100090.38;5023251;28;20058;-54
2022/04/25 06:07:13;;;;;;;3.35;2.03;;;;;;;13.23;24.17;100095.53;5023581;28;20073;-56
2022/04/25 06:09:44;;;;;;;9.48;5.20;;;;;;;13.22;27.57;100095.56;5023273;28;20108;-55
2022/04/25 06:12:16;;;;;;;2.55;1.70;;;;;;;13.32;26.69;100092.66;5023260;28;20080;-56
2022/04/25 06:14:48;;;;;;;2.70;1.75;;;;;;;13.14;24.94;100095.81;5023378;28;20067;-56
2022/04/25 06:17:19;;;;;;;2.58;2.10;;;;;;;13.05;26.47;100090.81;5023255;28;20060;-55
2022/04/25 06:19:49;;;;;;;2.72;1.70;;;;;;;12.98;26.50;100098.03;5025948;28;20068;-56
2022/04/25 06:22:20;;;;;;;2.55;1.88;;;;;;;13.05;26.39;100099.53;5027582;28;20054;-56
2022/04/25 06:24:51;;;;;;;3.85;1.98;;;;;;;13.15;26.44;100102.75;5027524;28;20085;-56
2022/04/25 06:27:23;;;;;;;4.63;2.20;;;;;;;13.15;25.74;100110.63;5027320;28;20073;-55
2022/04/25 06:29:54;;;;;;;4.45;2.05;;;;;;;13.17;26.82;100116.69;5027018;28;20407;-56
2022/04/25 06:32:29;;;;;;;5.97;2.03;;;;;;;12.91;22.36;100094.72;5027293;28;20409;-56
2022/04/25 06:35:00;;;;;;;7.60;1.83;;;;;;;12.71;24.31;100118.88;5026799;28;20549;-56
2022/04/25 06:37:31;;;;;;;5.97;2.50;;;;;;;12.59;24.73;100113.97;5027703;28;20056;-55
2022/04/25 06:40:07;;;;;;;4.00;2.08;;;;;;;12.38;24.47;100102.31;5027733;28;20422;-57
2022/04/25 06:42:39;;;;;;;8.40;2.45;;;;;;;12.36;24.78;100111.97;5027137;28;20094;-55
2022/04/25 06:45:11;;;;;;;4.32;2.15;;;;;;;12.25;24.92;100119.22;5027631;28;20399;-56
2022/04/25 06:47:42;;;;;;;14.15;2.10;;;;;;;12.20;25.35;100121.09;5027735;28;20282;-56
2022/04/25 06:50:13;;;;;;;15.70;2.50;;;;;;;12.16;25.95;100117.72;5027645;28;20116;-53
2022/04/25 06:52:45;;;;;;;5.00;2.30;;;;;;;12.02;24.28;100128.50;5026999;28;20121;-55
2022/04/25 06:55:15;;;;;;;4.50;2.25;;;;;;;11.84;24.27;100135.03;5027529;28;20050;-55
2022/04/25 06:57:48;;;;;;;13.57;3.05;;;;;;;11.77;25.46;100127.34;5026890;28;20088;-55
2022/04/25 07:00:22;;;;;;;2.83;2.20;;;;;;;11.82;25.81;100141.19;5026868;28;20049;-55
2022/04/25 07:03:09;;;;;;;2.97;2.30;;;;;;;11.93;25.78;100143.56;5027000;28;20046;-56
2022/04/25 07:05:42;;;;;;;3.25;2.05;;;;;;;12.15;25.78;100138.69;5026950;28;20113;-55
2022/04/25 07:08:12;;;;;;;9.73;2.65;;;;;;;12.38;24.72;100131.13;5026476;28;20117;-56
2022/04/25 07:10:43;;;;;;;10.73;2.33;;;;;;;12.50;23.54;100127.31;5026939;28;20083;-55
2022/04/25 07:13:17;;;;;;;7.10;2.30;;;;;;;12.42;24.12;100132.75;5026747;28;20332;-56
2022/04/25 07:15:48;;;;;;;4.35;2.28;;;;;;;12.38;24.49;100125.88;5026236;28;20054;-55
2022/04/25 07:18:19;;;;;;;5.50;2.42;;;;;;;12.46;25.47;100129.16;5026339;28;20061;-55
2022/04/25 07:20:50;;;;;;;16.92;5.10;;;;;;;12.49;25.23;100139.53;5026782;28;20086;-54
2022/04/25 07:28:58;;;;;;;8.57;2.72;;;;;;;12.88;23.08;100142.00;5026393;28;20084;-56
2022/04/25 07:31:29;;;;;;;4.70;2.05;;;;;;;12.94;23.17;100136.56;5025808;28;20205;-56
2022/04/25 07:34:00;;;;;;;12.93;2.88;;;;;;;13.01;23.85;100136.41;5025901;28;20065;-55
2022/04/25 07:36:30;;;;;;;3.10;2.30;;;;;;;13.09;25.02;100147.53;5025886;28;20061;-57
2022/04/25 07:39:02;;;;;;;5.72;2.20;;;;;;;13.15;24.86;100145.63;5026681;28;20034;-56
2022/04/25 07:41:34;;;;;;;10.10;2.20;;;;;;;13.01;23.74;100157.41;5026523;28;20755;-56
2022/04/25 07:44:07;;;;;;;2.92;2.17;;;;;;;12.80;21.93;100151.81;5025702;28;20143;-56
2022/04/25 07:46:40;;;;;;;19.20;2.85;;;;;;;12.55;22.96;100153.38;5026334;28;20061;-56
2022/04/25 07:49:12;;;;;;;14.10;3.50;;;;;;;12.52;22.80;100176.16;5026128;28;20065;-56
2022/04/25 07:51:43;;;;;;;14.27;4.40;;;;;;;12.45;23.82;100164.09;5026062;28;20104;-56
2022/04/25 07:54:14;;;;;;;5.22;1.95;;;;;;;12.48;23.54;100164.03;5026004;28;20336;-56
2022/04/25 07:56:46;;;;;;;14.40;2.75;;;;;;;12.51;24.32;100158.72;5025429;28;20328;-56
2022/04/25 07:59:20;;;;;;;8.82;2.60;;;;;;;12.41;23.29;100167.72;5026049;28;20050;-55
2022/04/25 08:01:52;;;;;;;8.60;2.60;;;;;;;12.41;24.20;100175.59;5026451;28;20051;-55
2022/04/25 08:04:23;;;;;;;7.00;2.70;;;;;;;12.35;24.04;100188.81;5025644;28;20096;-56
2022/04/25 08:06:54;;;;;;;9.55;2.40;;;;;;;12.28;24.37;100171.53;5025490;28;20073;-56
2022/04/25 08:09:24;;;;;;;3.47;2.05;;;;;;;12.19;22.92;100185.72;5025207;28;20049;-55
2022/04/25 08:20:15;;;;;;;5.63;2.50;;;;;;;11.72;23.57;100181.56;5025185;28;20077;-55
2022/04/25 08:22:46;;;;;;;7.78;2.58;;;;;;;11.63;24.44;100193.97;5026278;28;20056;-55
2022/04/25 08:25:18;;;;;;;6.82;2.97;;;;;;;11.56;24.56;100189.75;5024322;28;20080;-57
2022/04/25 08:27:48;;;;;;;18.40;3.92;;;;;;;11.47;24.69;100208.25;5023744;28;20121;-55
2022/04/25 08:30:21;;;;;;;6.30;2.55;;;;;;;11.39;24.69;100211.03;5024815;28;20081;-55
2022/04/25 08:32:54;;;;;;;4.45;2.20;;;;;;;11.38;24.88;100204.09;5023734;28;20057;-54
2022/04/25 08:35:25;;;;;;;10.70;4.00;;;;;;;11.35;24.91;100211.13;5025193;28;20087;-55
2022/04/25 08:37:56;;;;;;;19.05;3.55;;;;;;;11.29;24.68;100213.88;5024910;28;20324;-56
2022/04/25 08:40:27;;;;;;;13.90;2.88;;;;;;;11.16;24.15;100214.13;5025225;28;20073;-55
2022/04/25 08:43:00;;;;;;;5.93;2.20;;;;;;;10.96;24.71;100211.03;5024477;28;20057;-55
2022/04/25 08:45:38;;;;;;;10.27;3.50;;;;;;;10.66;24.55;100192.41;5025117;28;20125;-54
2022/04/25 08:48:10;;;;;;;16.40;3.58;;;;;;;10.78;25.30;100202.63;5024969;28;20051;-56
2022/04/25 08:50:42;;;;;;;12.18;2.92;;;;;;;10.70;25.84;100207.13;5024707;28;20076;-54
2022/04/25 08:53:15;;;;;;;6.03;2.60;;;;;;;10.57;25.37;100209.09;5024390;28;20047;-56
2022/04/25 08:55:47;;;;;;;9.23;2.65;;;;;;;10.42;25.63;100208.50;5024539;28;20054;-53
2022/04/25 08:58:19;;;;;;;4.75;2.15;;;;;;;10.10;25.48;100170.66;5024344;28;20050;-56
2022/04/25 09:00:52;;;;;;;4.68;2.40;;;;;;;10.19;25.58;100203.63;5024790;28;20332;-54
2022/04/25 09:03:24;;;;;;;5.40;2.45;;;;;;;10.05;26.08;100204.69;5024227;28;20117;-55
2022/04/25 09:05:55;;;;;;;10.57;2.58;;;;;;;9.85;25.75;100191.91;5024742;28;20069;-54
2022/04/25 09:08:26;;;;;;;4.75;2.60;;;;;;;9.83;26.40;100211.94;5025108;28;20077;-55
2022/04/25 09:12:09;;;;;;;12.20;3.42;;;;;;;9.72;26.21;100206.03;5024785;28;20083;-55
2022/04/25 09:13:51;;;;;;;14.85;3.65;;;;;;;9.54;26.99;100211.50;5024536;28;20058;-54
2022/04/25 09:16:24;;;;;;;11.15;3.22;;;;;;;9.32;29.60;100216.97;5024054;28;20076;-55
2022/04/25 09:18:55;;;;;;;8.70;3.05;;;;;;;8.99;34.68;100213.03;5024224;28;20241;-55
2022/04/25 09:21:26;;;;;;;8.63;3.05;;;;;;;8.59;35.84;100224.69;5023812;28;20053;-53
2022/04/25 09:23:59;;;;;;;8.75;3.10;;;;;;;8.19;37.63;100211.97;5024015;28;20045;-56
2022/04/25 09:26:31;;;;;;;20.23;4.35;;;;;;;7.86;37.94;100225.19;5023749;28;20080;-54
2022/04/25 09:29:01;;;;;;;38.45;17.98;;;;;;;7.26;38.94;100186.47;5024248;28;20071;-55
2022/04/25 09:31:35;;;;;;;46.97;23.30;;;;;;;7.08;40.02;100241.97;5025050;28;20108;-54
2022/04/25 09:34:59;;;;;;;38.33;17.90;;;;;;;6.75;41.54;100246.38;5023749;28;20356;-56
2022/04/25 09:37:07;;;;;;;146.57;63.25;;;;;;;6.35;41.81;100248.97;5024027;28;20065;-55
2022/04/25 09:39:38;;;;;;;65.15;30.45;;;;;;;6.05;42.05;100242.88;5023858;28;20069;-54
2022/04/25 09:42:09;;;;;;;40.65;19.40;;;;;;;5.84;42.88;100235.03;5023680;28;20065;-55
2022/04/25 09:44:57;;;;;;;38.13;16.95;;;;;;;5.43;43.76;100204.66;5023964;28;20084;-55
2022/04/25 09:47:31;;;;;;;67.68;31.30;;;;;;;5.46;44.59;100246.13;5023422;28;20054;-55
2022/04/25 09:50:07;;;;;;;36.03;16.30;;;;;;;5.31;45.00;100243.47;5023863;28;20056;-53
2022/04/25 09:52:53;;;;;;;64.57;25.63;;;;;;;5.09;45.52;100245.97;5023622;28;20085;-55
2022/04/25 09:55:25;;;;;;;58.17;25.27;;;;;;;4.89;45.53;100243.28;5023556;28;20047;-54
2022/04/25 09:57:55;;;;;;;44.83;19.08;;;;;;;4.86;45.78;100258.75;5023630;28;20060;-55
2022/04/25 10:00:38;;;;;;;33.10;12.73;;;;;;;4.79;46.18;100256.13;5024211;28;20152;-55
2022/04/25 10:03:11;;;;;;;11.80;5.22;;;;;;;4.62;47.09;100250.81;5023335;28;20076;-56
2022/04/25 10:05:42;;;;;;;15.65;5.53;;;;;;;4.51;47.50;100261.09;5024040;28;20058;-53
2022/04/25 10:08:14;;;;;;;8.25;3.47;;;;;;;4.43;46.84;100265.34;5023560;28;20120;-55
2022/04/25 10:10:49;;;;;;;13.30;5.90;;;;;;;4.31;47.60;100274.72;5023473;28;20053;-54
2022/04/25 10:13:21;;;;;;;41.38;18.15;;;;;;;4.18;48.51;100267.69;5023251;28;20092;-54
2022/04/25 10:15:51;;;;;;;21.17;8.90;;;;;;;3.92;48.77;100248.47;5023482;28;20125;-54
2022/04/25 10:18:24;;;;;;;17.33;7.63;;;;;;;3.92;49.02;100274.31;5023575;28;20052;-54
2022/04/25 10:20:55;;;;;;;15.43;7.18;;;;;;;3.92;48.86;100284.66;5023454;28;20060;-54
2022/04/25 10:23:26;;;;;;;13.00;5.75;;;;;;;3.89;48.95;100290.66;5025019;28;20042;-54
2022/04/25 10:25:59;;;;;;;5.03;3.45;;;;;;;3.98;49.57;100290.78;5023808;28;20058;-55
2022/04/25 10:28:33;;;;;;;8.88;3.30;;;;;;;3.99;48.94;100301.97;5023127;28;20387;-54
2022/04/25 10:31:09;;;;;;;6.20;3.97;;;;;;;4.01;49.59;100295.09;5024350;28;20137;-56
2022/04/25 10:33:52;;;;;;;15.57;8.20;;;;;;;4.21;51.02;100314.28;5024849;28;20061;-54
2022/04/25 10:36:49;;;;;;;10.10;5.28;;;;;;;4.09;50.81;100303.81;5024047;28;20283;-54
2022/04/25 10:39:22;;;;;;;8.73;5.57;;;;;;;4.13;50.11;100315.94;5023209;28;20614;-53
2022/04/25 10:44:56;;;;;;;5.03;3.08;;;;;;;4.02;49.12;100317.50;5023826;28;20088;-53
2022/04/25 10:47:28;;;;;;;30.83;14.18;;;;;;;3.81;50.05;100326.75;5026305;28;20613;-53
2022/04/25 10:50:11;;;;;;;22.10;11.38;;;;;;;3.66;50.74;100334.34;5023970;28;20068;-53
2022/04/25 10:52:55;;;;;;;5.88;3.78;;;;;;;3.48;50.86;100328.94;5024235;28;20362;-54
2022/04/25 10:55:46;;;;;;;5.18;2.80;;;;;;;3.46;49.56;100332.34;5022812;28;20046;-53
2022/04/25 10:58:25;;;;;;;11.13;5.60;;;;;;;3.68;49.16;100322.31;5023210;28;20121;-54
2022/04/25 11:00:57;;;;;;;8.45;4.78;;;;;;;3.70;49.56;100341.28;5022704;28;20056;-54
2022/04/25 11:03:32;;;;;;;4.28;3.22;;;;;;;3.60;50.58;100344.59;5023107;28;20388;-53
2022/04/25 11:06:25;;;;;;;8.60;4.30;;;;;;;3.60;51.23;100354.94;5025544;28;20355;-53
2022/04/25 11:08:56;;;;;;;19.40;9.43;;;;;;;3.53;50.69;100358.28;5026326;28;20061;-53
2022/04/25 11:11:27;;;;;;;18.35;8.90;;;;;;;3.55;51.50;100354.00;5026449;28;20567;-55
2022/04/25 11:14:25;;;;;;;10.95;5.95;;;;;;;3.55;52.22;100362.63;5025982;28;20240;-54
2022/04/25 11:17:11;;;;;;;5.75;3.90;;;;;;;3.38;51.60;100364.97;5026635;28;20064;-54
2022/04/25 11:19:51;;;;;;;5.57;3.95;;;;;;;3.24;51.91;100361.28;5026470;28;20108;-55
2022/04/25 11:22:48;;;;;;;11.73;5.80;;;;;;;3.17;51.92;100343.97;5026198;28;20085;-54
2022/04/25 11:25:43;;;;;;;10.48;5.88;;;;;;;3.11;51.85;100364.56;5027340;28;20056;-54
2022/04/25 11:28:14;;;;;;;20.70;3.70;;;;;;;2.98;52.28;100358.34;5026331;28;20121;-54
2022/04/25 11:30:45;;;;;;;11.20;4.00;;;;;;;3.11;51.46;100374.88;5026590;28;20057;-55
2022/04/25 11:33:16;;;;;;;15.68;3.88;;;;;;;3.19;51.69;100381.03;5025404;28;20065;-53
2022/04/25 11:35:46;;;;;;;7.20;3.17;;;;;;;3.18;52.06;100376.72;5026270;28;20112;-53
2022/04/25 11:39:50;;;;;;;5.93;3.47;;;;;;;3.21;52.05;100371.59;5026235;28;20084;-54
2022/04/25 11:41:09;;;;;;;37.55;16.45;;;;;;;3.28;52.09;100394.09;5026207;28;20057;-55
2022/04/25 11:43:42;;;;;;;27.10;11.57;;;;;;;3.30;52.12;100392.41;5025943;28;20096;-53
2022/04/25 11:46:13;;;;;;;34.45;14.82;;;;;;;3.28;52.72;100388.91;5026041;28;20095;-54
2022/04/25 11:48:43;;;;;;;32.03;13.50;;;;;;;3.30;53.00;100400.16;5026092;28;20067;-54
2022/04/25 11:51:16;;;;;;;58.95;26.73;;;;;;;3.19;54.17;100404.25;5025976;28;20060;-52
2022/04/25 11:53:48;;;;;;;28.02;10.93;;;;;;;3.14;55.73;100400.72;5025938;28;20135;-53
2022/04/25 11:56:19;;;;;;;18.17;6.82;;;;;;;3.03;55.45;100406.59;5025837;28;20340;-55
2022/04/25 11:58:50;;;;;;;11.30;5.00;;;;;;;3.08;55.88;100405.81;5025735;28;20046;-53
2022/04/25 12:01:37;;;;;;;7.25;4.15;;;;;;;3.07;54.68;100406.63;5025650;28;20059;-53
2022/04/25 12:04:18;;;;;;;7.20;4.32;;;;;;;2.93;54.89;100386.66;5025432;28;20298;-53
2022/04/25 12:06:51;;;;;;;9.50;6.97;;;;;;;2.95;55.24;100410.78;5025472;28;20046;-55
2022/04/25 12:17:54;;;;;;;8.40;4.88;;;;;;;2.86;57.23;100451.91;5024666;28;20060;-54
2022/04/25 12:20:35;;;;;;;14.13;7.47;;;;;;;2.72;57.45;100459.41;5025184;28;20061;-53
2022/04/25 12:23:06;;;;;;;8.38;3.65;;;;;;;2.69;58.21;100458.47;5025275;28;20060;-54
2022/04/25 12:25:43;;;;;;;6.03;4.25;;;;;;;2.56;58.63;100458.22;5025087;28;20055;-54
2022/04/25 12:28:19;;;;;;;8.15;5.30;;;;;;;2.56;58.58;100458.22;5025503;28;20045;-54
2022/04/25 12:30:52;;;;;;;8.32;6.20;;;;;;;2.55;58.59;100459.09;5025501;28;20045;-53